sensor_id;sensor_type;location;lat;lon;timestamp;P1;durP1;ratioP1;P2;durP2;ratioP2
20870;SDS011;10595;51.218;3.452;2023-07-29T00:00:56;5.30;;;3.10;;
20870;SDS011;10595;51.218;3.452;2023-07-29T00:03:22;6.07;;;3.33;;
20870;SDS011;10595;51.218;3.452;2023-07-29T00:05:49;6.03;;;3.43;;
20870;SDS011;10595;51.218;3.452;2023-07-29T00:08:15;6.30;;;3.87;;
20870;SDS011;10595;51.218;3.452;2023-07-29T00:10:41;5.67;;;3.27;;
20870;SDS011;10595;51.218;3.452;2023-07-29T00:13:07;5.10;;;3.20;;
20870;SDS011;10595;51.218;3.452;2023-07-29T00:15:33;6.37;;;3.47;;
20870;SDS011;10595;51.218;3.452;2023-07-29T00:17:59;6.60;;;3.67;;
20870;SDS011;10595;51.218;3.452;2023-07-29T00:20:25;5.90;;;3.53;;
20870;SDS011;10595;51.218;3.452;2023-07-29T00:22:51;4.80;;;3.40;;
20870;SDS011;10595;51.218;3.452;2023-07-29T00:25:20;6.70;;;3.63;;
20870;SDS011;10595;51.218;3.452;2023-07-29T00:27:46;5.77;;;3.70;;
20870;SDS011;10595;51.218;3.452;2023-07-29T00:30:13;6.63;;;4.00;;
20870;SDS011;10595;51.218;3.452;2023-07-29T00:32:38;7.17;;;4.27;;
20870;SDS011;10595;51.218;3.452;2023-07-29T00:35:05;5.03;;;3.30;;
20870;SDS011;10595;51.218;3.452;2023-07-29T00:37:31;6.10;;;3.77;;
20870;SDS011;10595;51.218;3.452;2023-07-29T00:39:57;5.30;;;3.80;;
20870;SDS011;10595;51.218;3.452;2023-07-29T00:42:23;5.17;;;3.60;;
20870;SDS011;10595;51.218;3.452;2023-07-29T00:44:49;10.40;;;3.70;;
20870;SDS011;10595;51.218;3.452;2023-07-29T00:47:15;8.07;;;3.77;;
20870;SDS011;10595;51.218;3.452;2023-07-29T00:49:45;8.40;;;3.87;;
20870;SDS011;10595;51.218;3.452;2023-07-29T00:52:11;5.40;;;3.60;;
20870;SDS011;10595;51.218;3.452;2023-07-29T00:54:40;6.50;;;3.57;;
20870;SDS011;10595;51.218;3.452;2023-07-29T00:57:08;5.13;;;3.53;;
20870;SDS011;10595;51.218;3.452;2023-07-29T00:59:35;5.63;;;3.80;;
20870;SDS011;10595;51.218;3.452;2023-07-29T01:02:02;7.63;;;3.43;;
20870;SDS011;10595;51.218;3.452;2023-07-29T01:04:28;4.83;;;3.90;;
20870;SDS011;10595;51.218;3.452;2023-07-29T01:14:36;7.67;;;4.20;;
20870;SDS011;10595;51.218;3.452;2023-07-29T01:17:06;6.37;;;4.30;;
20870;SDS011;10595;51.218;3.452;2023-07-29T01:21:59;7.67;;;4.63;;
20870;SDS011;10595;51.218;3.452;2023-07-29T01:24:25;5.93;;;4.23;;
20870;SDS011;10595;51.218;3.452;2023-07-29T01:26:51;7.33;;;4.30;;
20870;SDS011;10595;51.218;3.452;2023-07-29T01:29:17;6.10;;;4.70;;
20870;SDS011;10595;51.218;3.452;2023-07-29T01:31:43;8.30;;;4.80;;
20870;SDS011;10595;51.218;3.452;2023-07-29T01:34:15;7.17;;;4.43;;
20870;SDS011;10595;51.218;3.452;2023-07-29T01:36:43;6.47;;;4.47;;
20870;SDS011;10595;51.218;3.452;2023-07-29T01:39:11;6.93;;;4.67;;
20870;SDS011;10595;51.218;3.452;2023-07-29T01:41:37;8.40;;;5.30;;
20870;SDS011;10595;51.218;3.452;2023-07-29T01:44:04;7.50;;;4.63;;
20870;SDS011;10595;51.218;3.452;2023-07-29T01:46:32;7.77;;;4.90;;
20870;SDS011;10595;51.218;3.452;2023-07-29T01:48:58;6.20;;;4.37;;
20870;SDS011;10595;51.218;3.452;2023-07-29T01:51:24;8.10;;;4.77;;
20870;SDS011;10595;51.218;3.452;2023-07-29T01:53:50;7.80;;;4.83;;
20870;SDS011;10595;51.218;3.452;2023-07-29T01:56:16;8.47;;;4.57;;
20870;SDS011;10595;51.218;3.452;2023-07-29T01:58:42;5.90;;;4.50;;
20870;SDS011;10595;51.218;3.452;2023-07-29T02:01:08;7.70;;;5.20;;
20870;SDS011;10595;51.218;3.452;2023-07-29T02:03:34;8.13;;;4.60;;
20870;SDS011;10595;51.218;3.452;2023-07-29T02:06:00;7.93;;;4.47;;
20870;SDS011;10595;51.218;3.452;2023-07-29T02:08:26;7.83;;;4.80;;
20870;SDS011;10595;51.218;3.452;2023-07-29T02:10:53;6.80;;;4.30;;
20870;SDS011;10595;51.218;3.452;2023-07-29T02:13:19;7.83;;;4.97;;
20870;SDS011;10595;51.218;3.452;2023-07-29T02:15:45;8.17;;;5.20;;
20870;SDS011;10595;51.218;3.452;2023-07-29T02:18:11;8.00;;;4.50;;
20870;SDS011;10595;51.218;3.452;2023-07-29T02:20:37;7.13;;;4.77;;
20870;SDS011;10595;51.218;3.452;2023-07-29T02:23:03;9.87;;;5.13;;
20870;SDS011;10595;51.218;3.452;2023-07-29T02:25:29;9.17;;;4.70;;
20870;SDS011;10595;51.218;3.452;2023-07-29T02:27:55;7.97;;;4.90;;
20870;SDS011;10595;51.218;3.452;2023-07-29T02:30:21;10.73;;;5.40;;
20870;SDS011;10595;51.218;3.452;2023-07-29T02:32:47;6.77;;;4.60;;
20870;SDS011;10595;51.218;3.452;2023-07-29T02:35:13;7.07;;;4.40;;
20870;SDS011;10595;51.218;3.452;2023-07-29T02:37:39;7.73;;;5.03;;
20870;SDS011;10595;51.218;3.452;2023-07-29T02:40:06;8.23;;;4.77;;
20870;SDS011;10595;51.218;3.452;2023-07-29T02:42:32;10.23;;;4.87;;
20870;SDS011;10595;51.218;3.452;2023-07-29T02:45:01;7.87;;;4.40;;
20870;SDS011;10595;51.218;3.452;2023-07-29T02:47:27;8.33;;;4.97;;
20870;SDS011;10595;51.218;3.452;2023-07-29T02:49:54;8.20;;;4.80;;
20870;SDS011;10595;51.218;3.452;2023-07-29T02:52:20;8.27;;;4.90;;
20870;SDS011;10595;51.218;3.452;2023-07-29T02:54:46;6.20;;;4.27;;
20870;SDS011;10595;51.218;3.452;2023-07-29T02:57:13;7.27;;;4.07;;
20870;SDS011;10595;51.218;3.452;2023-07-29T02:59:39;8.73;;;5.03;;
20870;SDS011;10595;51.218;3.452;2023-07-29T03:02:05;9.10;;;4.90;;
20870;SDS011;10595;51.218;3.452;2023-07-29T03:04:31;6.40;;;4.50;;
20870;SDS011;10595;51.218;3.452;2023-07-29T03:06:57;8.03;;;4.30;;
20870;SDS011;10595;51.218;3.452;2023-07-29T03:09:24;8.07;;;4.53;;
20870;SDS011;10595;51.218;3.452;2023-07-29T03:11:50;6.30;;;4.53;;
20870;SDS011;10595;51.218;3.452;2023-07-29T03:14:17;8.20;;;4.93;;
20870;SDS011;10595;51.218;3.452;2023-07-29T03:16:43;8.27;;;5.40;;
20870;SDS011;10595;51.218;3.452;2023-07-29T03:19:09;7.97;;;4.57;;
20870;SDS011;10595;51.218;3.452;2023-07-29T03:21:35;9.20;;;4.47;;
20870;SDS011;10595;51.218;3.452;2023-07-29T03:24:02;8.27;;;4.60;;
20870;SDS011;10595;51.218;3.452;2023-07-29T03:26:28;6.07;;;4.30;;
20870;SDS011;10595;51.218;3.452;2023-07-29T03:28:54;6.77;;;4.47;;
20870;SDS011;10595;51.218;3.452;2023-07-29T03:31:20;8.47;;;4.87;;
20870;SDS011;10595;51.218;3.452;2023-07-29T03:33:46;6.43;;;4.13;;
20870;SDS011;10595;51.218;3.452;2023-07-29T03:36:12;7.23;;;4.57;;
20870;SDS011;10595;51.218;3.452;2023-07-29T03:38:39;8.50;;;5.33;;
20870;SDS011;10595;51.218;3.452;2023-07-29T03:41:08;9.57;;;4.30;;
20870;SDS011;10595;51.218;3.452;2023-07-29T03:43:34;9.67;;;4.87;;
20870;SDS011;10595;51.218;3.452;2023-07-29T03:46:00;7.13;;;4.37;;
20870;SDS011;10595;51.218;3.452;2023-07-29T03:48:26;10.13;;;5.40;;
20870;SDS011;10595;51.218;3.452;2023-07-29T03:50:52;8.07;;;5.07;;
20870;SDS011;10595;51.218;3.452;2023-07-29T03:53:18;7.97;;;4.97;;
20870;SDS011;10595;51.218;3.452;2023-07-29T03:55:44;8.10;;;4.70;;
20870;SDS011;10595;51.218;3.452;2023-07-29T03:58:11;9.03;;;4.67;;
20870;SDS011;10595;51.218;3.452;2023-07-29T04:00:37;7.37;;;4.73;;
20870;SDS011;10595;51.218;3.452;2023-07-29T04:03:03;6.90;;;4.33;;
20870;SDS011;10595;51.218;3.452;2023-07-29T04:05:29;7.23;;;4.10;;
20870;SDS011;10595;51.218;3.452;2023-07-29T04:07:55;6.20;;;4.27;;
20870;SDS011;10595;51.218;3.452;2023-07-29T04:10:21;7.57;;;4.87;;
20870;SDS011;10595;51.218;3.452;2023-07-29T04:12:47;7.53;;;4.63;;
20870;SDS011;10595;51.218;3.452;2023-07-29T04:15:13;6.77;;;4.83;;
20870;SDS011;10595;51.218;3.452;2023-07-29T04:17:39;5.80;;;4.20;;
20870;SDS011;10595;51.218;3.452;2023-07-29T04:20:06;6.47;;;3.97;;
20870;SDS011;10595;51.218;3.452;2023-07-29T04:22:32;9.97;;;4.90;;
20870;SDS011;10595;51.218;3.452;2023-07-29T04:24:58;10.47;;;4.67;;
20870;SDS011;10595;51.218;3.452;2023-07-29T04:27:24;7.00;;;4.80;;
20870;SDS011;10595;51.218;3.452;2023-07-29T04:29:50;7.63;;;4.90;;
20870;SDS011;10595;51.218;3.452;2023-07-29T04:32:16;10.90;;;5.10;;
20870;SDS011;10595;51.218;3.452;2023-07-29T04:34:42;8.90;;;4.40;;
20870;SDS011;10595;51.218;3.452;2023-07-29T04:37:08;6.37;;;4.43;;
20870;SDS011;10595;51.218;3.452;2023-07-29T04:39:34;9.03;;;4.20;;
20870;SDS011;10595;51.218;3.452;2023-07-29T04:42:01;6.37;;;4.40;;
20870;SDS011;10595;51.218;3.452;2023-07-29T04:44:27;7.77;;;4.53;;
20870;SDS011;10595;51.218;3.452;2023-07-29T04:46:53;8.30;;;4.40;;
20870;SDS011;10595;51.218;3.452;2023-07-29T04:49:19;6.00;;;3.90;;
20870;SDS011;10595;51.218;3.452;2023-07-29T04:51:45;6.47;;;4.43;;
20870;SDS011;10595;51.218;3.452;2023-07-29T04:54:11;10.07;;;4.90;;
20870;SDS011;10595;51.218;3.452;2023-07-29T04:56:37;7.67;;;4.20;;
20870;SDS011;10595;51.218;3.452;2023-07-29T04:59:03;6.90;;;4.97;;
20870;SDS011;10595;51.218;3.452;2023-07-29T05:01:29;9.23;;;5.50;;
20870;SDS011;10595;51.218;3.452;2023-07-29T05:03:55;10.23;;;6.10;;
20870;SDS011;10595;51.218;3.452;2023-07-29T05:06:21;8.93;;;5.40;;
20870;SDS011;10595;51.218;3.452;2023-07-29T05:08:47;8.73;;;4.97;;
20870;SDS011;10595;51.218;3.452;2023-07-29T05:11:13;10.53;;;5.43;;
20870;SDS011;10595;51.218;3.452;2023-07-29T05:13:39;10.33;;;5.33;;
20870;SDS011;10595;51.218;3.452;2023-07-29T05:16:05;9.77;;;5.93;;
20870;SDS011;10595;51.218;3.452;2023-07-29T05:18:31;10.00;;;4.67;;
20870;SDS011;10595;51.218;3.452;2023-07-29T05:20:57;7.93;;;4.83;;
20870;SDS011;10595;51.218;3.452;2023-07-29T05:23:23;7.43;;;4.70;;
20870;SDS011;10595;51.218;3.452;2023-07-29T05:25:49;8.93;;;4.90;;
20870;SDS011;10595;51.218;3.452;2023-07-29T05:28:15;8.50;;;5.10;;
20870;SDS011;10595;51.218;3.452;2023-07-29T05:30:43;7.60;;;4.60;;
20870;SDS011;10595;51.218;3.452;2023-07-29T05:33:09;7.67;;;4.83;;
20870;SDS011;10595;51.218;3.452;2023-07-29T05:35:35;8.13;;;4.73;;
20870;SDS011;10595;51.218;3.452;2023-07-29T05:38:01;5.90;;;4.30;;
20870;SDS011;10595;51.218;3.452;2023-07-29T05:40:28;5.47;;;4.20;;
20870;SDS011;10595;51.218;3.452;2023-07-29T05:42:54;7.00;;;4.90;;
20870;SDS011;10595;51.218;3.452;2023-07-29T05:45:21;6.43;;;3.80;;
20870;SDS011;10595;51.218;3.452;2023-07-29T05:47:47;5.83;;;4.37;;
20870;SDS011;10595;51.218;3.452;2023-07-29T05:50:13;8.13;;;4.80;;
20870;SDS011;10595;51.218;3.452;2023-07-29T05:52:39;7.47;;;4.40;;
20870;SDS011;10595;51.218;3.452;2023-07-29T05:55:05;6.40;;;3.97;;
20870;SDS011;10595;51.218;3.452;2023-07-29T05:57:31;7.57;;;4.83;;
20870;SDS011;10595;51.218;3.452;2023-07-29T05:59:57;7.40;;;3.93;;
20870;SDS011;10595;51.218;3.452;2023-07-29T06:02:23;6.47;;;4.50;;
20870;SDS011;10595;51.218;3.452;2023-07-29T06:04:49;5.47;;;4.00;;
20870;SDS011;10595;51.218;3.452;2023-07-29T06:07:15;4.80;;;3.70;;
20870;SDS011;10595;51.218;3.452;2023-07-29T06:09:41;8.77;;;4.50;;
20870;SDS011;10595;51.218;3.452;2023-07-29T06:12:07;8.47;;;4.20;;
20870;SDS011;10595;51.218;3.452;2023-07-29T06:14:34;6.00;;;4.40;;
20870;SDS011;10595;51.218;3.452;2023-07-29T06:17:00;7.07;;;3.93;;
20870;SDS011;10595;51.218;3.452;2023-07-29T06:19:26;4.83;;;3.87;;
20870;SDS011;10595;51.218;3.452;2023-07-29T06:21:52;5.67;;;3.90;;
20870;SDS011;10595;51.218;3.452;2023-07-29T06:24:20;6.13;;;3.83;;
20870;SDS011;10595;51.218;3.452;2023-07-29T06:26:46;6.13;;;3.50;;
20870;SDS011;10595;51.218;3.452;2023-07-29T06:29:12;6.97;;;4.13;;
20870;SDS011;10595;51.218;3.452;2023-07-29T06:31:38;6.00;;;3.67;;
20870;SDS011;10595;51.218;3.452;2023-07-29T06:34:04;5.67;;;3.67;;
20870;SDS011;10595;51.218;3.452;2023-07-29T06:36:30;5.50;;;3.33;;
20870;SDS011;10595;51.218;3.452;2023-07-29T06:38:56;4.17;;;3.00;;
20870;SDS011;10595;51.218;3.452;2023-07-29T06:41:22;3.57;;;2.80;;
20870;SDS011;10595;51.218;3.452;2023-07-29T06:43:48;3.53;;;2.53;;
20870;SDS011;10595;51.218;3.452;2023-07-29T06:46:14;3.60;;;2.67;;
20870;SDS011;10595;51.218;3.452;2023-07-29T06:48:40;8.17;;;2.70;;
20870;SDS011;10595;51.218;3.452;2023-07-29T06:51:06;3.07;;;2.60;;
20870;SDS011;10595;51.218;3.452;2023-07-29T06:53:32;4.60;;;2.93;;
20870;SDS011;10595;51.218;3.452;2023-07-29T06:55:58;4.30;;;2.70;;
20870;SDS011;10595;51.218;3.452;2023-07-29T06:58:24;4.13;;;2.47;;
20870;SDS011;10595;51.218;3.452;2023-07-29T07:00:50;4.70;;;2.60;;
20870;SDS011;10595;51.218;3.452;2023-07-29T07:03:16;5.30;;;2.33;;
20870;SDS011;10595;51.218;3.452;2023-07-29T07:05:43;4.37;;;2.47;;
20870;SDS011;10595;51.218;3.452;2023-07-29T07:08:09;3.70;;;2.30;;
20870;SDS011;10595;51.218;3.452;2023-07-29T07:10:35;3.53;;;2.03;;
20870;SDS011;10595;51.218;3.452;2023-07-29T07:13:01;3.37;;;2.10;;
20870;SDS011;10595;51.218;3.452;2023-07-29T07:15:27;4.17;;;2.10;;
20870;SDS011;10595;51.218;3.452;2023-07-29T07:17:53;2.30;;;1.83;;
20870;SDS011;10595;51.218;3.452;2023-07-29T07:20:19;4.27;;;2.10;;
20870;SDS011;10595;51.218;3.452;2023-07-29T07:22:45;2.97;;;2.07;;
20870;SDS011;10595;51.218;3.452;2023-07-29T07:25:11;2.70;;;1.97;;
20870;SDS011;10595;51.218;3.452;2023-07-29T07:27:37;2.40;;;1.80;;
20870;SDS011;10595;51.218;3.452;2023-07-29T07:30:03;3.60;;;2.20;;
20870;SDS011;10595;51.218;3.452;2023-07-29T07:32:29;4.50;;;2.17;;
20870;SDS011;10595;51.218;3.452;2023-07-29T07:34:55;4.77;;;2.00;;
20870;SDS011;10595;51.218;3.452;2023-07-29T07:37:21;6.57;;;1.80;;
20870;SDS011;10595;51.218;3.452;2023-07-29T07:39:47;2.07;;;1.77;;
20870;SDS011;10595;51.218;3.452;2023-07-29T07:42:13;4.07;;;2.00;;
20870;SDS011;10595;51.218;3.452;2023-07-29T07:44:40;2.23;;;1.80;;
20870;SDS011;10595;51.218;3.452;2023-07-29T07:47:06;1.93;;;1.60;;
20870;SDS011;10595;51.218;3.452;2023-07-29T07:49:32;3.30;;;1.90;;
20870;SDS011;10595;51.218;3.452;2023-07-29T07:51:58;2.70;;;1.73;;
20870;SDS011;10595;51.218;3.452;2023-07-29T07:54:24;2.67;;;1.90;;
20870;SDS011;10595;51.218;3.452;2023-07-29T07:56:50;3.30;;;2.33;;
20870;SDS011;10595;51.218;3.452;2023-07-29T07:59:16;2.57;;;1.90;;
20870;SDS011;10595;51.218;3.452;2023-07-29T08:01:42;4.07;;;2.03;;
20870;SDS011;10595;51.218;3.452;2023-07-29T08:04:08;5.10;;;2.23;;
20870;SDS011;10595;51.218;3.452;2023-07-29T08:06:34;4.07;;;1.97;;
20870;SDS011;10595;51.218;3.452;2023-07-29T08:09:00;4.00;;;2.30;;
20870;SDS011;10595;51.218;3.452;2023-07-29T08:11:26;4.40;;;2.10;;
20870;SDS011;10595;51.218;3.452;2023-07-29T08:13:52;3.90;;;2.40;;
20870;SDS011;10595;51.218;3.452;2023-07-29T08:16:18;2.87;;;2.00;;
20870;SDS011;10595;51.218;3.452;2023-07-29T08:18:44;3.23;;;2.30;;
20870;SDS011;10595;51.218;3.452;2023-07-29T08:21:10;4.13;;;2.20;;
20870;SDS011;10595;51.218;3.452;2023-07-29T08:23:36;3.33;;;2.27;;
20870;SDS011;10595;51.218;3.452;2023-07-29T08:26:03;5.30;;;2.40;;
20870;SDS011;10595;51.218;3.452;2023-07-29T08:28:31;4.97;;;2.30;;
20870;SDS011;10595;51.218;3.452;2023-07-29T08:30:57;2.93;;;2.23;;
20870;SDS011;10595;51.218;3.452;2023-07-29T08:33:24;3.57;;;2.53;;
20870;SDS011;10595;51.218;3.452;2023-07-29T08:35:50;5.33;;;2.40;;
20870;SDS011;10595;51.218;3.452;2023-07-29T08:38:16;4.43;;;2.90;;
20870;SDS011;10595;51.218;3.452;2023-07-29T08:40:45;3.60;;;2.50;;
20870;SDS011;10595;51.218;3.452;2023-07-29T08:43:11;4.20;;;3.30;;
20870;SDS011;10595;51.218;3.452;2023-07-29T08:45:37;4.17;;;2.97;;
20870;SDS011;10595;51.218;3.452;2023-07-29T08:48:06;6.37;;;2.97;;
20870;SDS011;10595;51.218;3.452;2023-07-29T08:50:33;4.00;;;2.93;;
20870;SDS011;10595;51.218;3.452;2023-07-29T08:53:01;6.23;;;2.80;;
20870;SDS011;10595;51.218;3.452;2023-07-29T08:55:29;3.37;;;2.93;;
20870;SDS011;10595;51.218;3.452;2023-07-29T08:57:55;3.70;;;2.90;;
20870;SDS011;10595;51.218;3.452;2023-07-29T09:00:21;3.87;;;2.93;;
20870;SDS011;10595;51.218;3.452;2023-07-29T09:02:47;4.87;;;3.10;;
20870;SDS011;10595;51.218;3.452;2023-07-29T09:05:13;5.20;;;3.40;;
20870;SDS011;10595;51.218;3.452;2023-07-29T09:07:39;5.97;;;3.40;;
20870;SDS011;10595;51.218;3.452;2023-07-29T09:10:08;4.97;;;3.80;;
20870;SDS011;10595;51.218;3.452;2023-07-29T09:12:35;5.47;;;3.70;;
20870;SDS011;10595;51.218;3.452;2023-07-29T09:15:02;6.00;;;3.87;;
20870;SDS011;10595;51.218;3.452;2023-07-29T09:17:30;4.53;;;3.47;;
20870;SDS011;10595;51.218;3.452;2023-07-29T09:19:57;7.97;;;4.30;;
20870;SDS011;10595;51.218;3.452;2023-07-29T09:22:23;5.23;;;3.67;;
20870;SDS011;10595;51.218;3.452;2023-07-29T09:24:50;5.37;;;4.40;;
20870;SDS011;10595;51.218;3.452;2023-07-29T09:27:24;6.50;;;4.27;;
20870;SDS011;10595;51.218;3.452;2023-07-29T09:29:50;8.13;;;4.83;;
20870;SDS011;10595;51.218;3.452;2023-07-29T09:32:23;5.10;;;3.90;;
20870;SDS011;10595;51.218;3.452;2023-07-29T09:34:49;5.23;;;4.47;;
20870;SDS011;10595;51.218;3.452;2023-07-29T09:37:16;6.77;;;4.77;;
20870;SDS011;10595;51.218;3.452;2023-07-29T09:39:45;6.23;;;3.77;;
20870;SDS011;10595;51.218;3.452;2023-07-29T09:42:16;8.17;;;4.10;;
20870;SDS011;10595;51.218;3.452;2023-07-29T09:44:42;6.33;;;4.07;;
20870;SDS011;10595;51.218;3.452;2023-07-29T09:47:08;7.53;;;4.37;;
20870;SDS011;10595;51.218;3.452;2023-07-29T09:49:35;5.93;;;3.87;;
20870;SDS011;10595;51.218;3.452;2023-07-29T09:52:01;4.07;;;3.50;;
20870;SDS011;10595;51.218;3.452;2023-07-29T09:54:29;4.97;;;3.30;;
20870;SDS011;10595;51.218;3.452;2023-07-29T09:56:56;5.20;;;3.07;;
20870;SDS011;10595;51.218;3.452;2023-07-29T09:59:23;4.73;;;3.17;;
20870;SDS011;10595;51.218;3.452;2023-07-29T10:01:49;5.07;;;3.00;;
20870;SDS011;10595;51.218;3.452;2023-07-29T10:04:15;4.67;;;3.10;;
20870;SDS011;10595;51.218;3.452;2023-07-29T10:06:42;4.07;;;3.20;;
20870;SDS011;10595;51.218;3.452;2023-07-29T10:09:10;4.00;;;3.30;;
20870;SDS011;10595;51.218;3.452;2023-07-29T10:11:37;5.30;;;3.87;;
20870;SDS011;10595;51.218;3.452;2023-07-29T10:14:03;5.83;;;3.70;;
20870;SDS011;10595;51.218;3.452;2023-07-29T10:16:29;4.27;;;3.67;;
20870;SDS011;10595;51.218;3.452;2023-07-29T10:18:55;4.23;;;3.63;;
20870;SDS011;10595;51.218;3.452;2023-07-29T10:21:22;5.43;;;3.63;;
20870;SDS011;10595;51.218;3.452;2023-07-29T10:23:48;4.20;;;3.40;;
20870;SDS011;10595;51.218;3.452;2023-07-29T10:26:16;3.50;;;3.20;;
20870;SDS011;10595;51.218;3.452;2023-07-29T10:28:44;4.23;;;3.07;;
20870;SDS011;10595;51.218;3.452;2023-07-29T10:31:12;3.50;;;3.20;;
20870;SDS011;10595;51.218;3.452;2023-07-29T10:33:38;5.00;;;3.60;;
20870;SDS011;10595;51.218;3.452;2023-07-29T10:36:05;3.83;;;3.20;;
20870;SDS011;10595;51.218;3.452;2023-07-29T10:38:31;3.20;;;2.90;;
20870;SDS011;10595;51.218;3.452;2023-07-29T10:40:57;4.10;;;3.17;;
20870;SDS011;10595;51.218;3.452;2023-07-29T10:43:27;4.70;;;3.03;;
20870;SDS011;10595;51.218;3.452;2023-07-29T10:45:54;3.73;;;3.10;;
20870;SDS011;10595;51.218;3.452;2023-07-29T10:53:47;2.53;;;2.17;;
20870;SDS011;10595;51.218;3.452;2023-07-29T10:56:13;4.60;;;2.73;;
20870;SDS011;10595;51.218;3.452;2023-07-29T10:58:39;3.73;;;2.50;;
20870;SDS011;10595;51.218;3.452;2023-07-29T11:01:13;2.90;;;2.20;;
20870;SDS011;10595;51.218;3.452;2023-07-29T11:07:01;3.50;;;2.63;;
20870;SDS011;10595;51.218;3.452;2023-07-29T11:14:51;4.80;;;2.20;;
20870;SDS011;10595;51.218;3.452;2023-07-29T11:17:17;2.27;;;1.83;;
20870;SDS011;10595;51.218;3.452;2023-07-29T11:19:44;2.73;;;2.17;;
20870;SDS011;10595;51.218;3.452;2023-07-29T11:22:10;3.67;;;2.20;;
20870;SDS011;10595;51.218;3.452;2023-07-29T11:24:37;2.23;;;1.97;;
20870;SDS011;10595;51.218;3.452;2023-07-29T11:27:03;3.33;;;1.97;;
20870;SDS011;10595;51.218;3.452;2023-07-29T11:29:29;2.60;;;1.83;;
20870;SDS011;10595;51.218;3.452;2023-07-29T11:31:55;3.20;;;1.50;;
20870;SDS011;10595;51.218;3.452;2023-07-29T11:34:31;1.40;;;1.30;;
20870;SDS011;10595;51.218;3.452;2023-07-29T11:36:57;5.40;;;1.80;;
20870;SDS011;10595;51.218;3.452;2023-07-29T11:39:23;2.40;;;1.80;;
20870;SDS011;10595;51.218;3.452;2023-07-29T11:41:49;1.65;;;1.17;;
20870;SDS011;10595;51.218;3.452;2023-07-29T11:44:18;1.97;;;1.20;;
20870;SDS011;10595;51.218;3.452;2023-07-29T11:46:44;2.28;;;1.40;;
20870;SDS011;10595;51.218;3.452;2023-07-29T11:49:10;2.28;;;1.35;;
20870;SDS011;10595;51.218;3.452;2023-07-29T11:51:36;2.03;;;1.10;;
20870;SDS011;10595;51.218;3.452;2023-07-29T11:54:03;1.45;;;1.20;;
20870;SDS011;10595;51.218;3.452;2023-07-29T11:56:29;4.50;;;1.30;;
20870;SDS011;10595;51.218;3.452;2023-07-29T11:58:57;3.30;;;1.60;;
20870;SDS011;10595;51.218;3.452;2023-07-29T12:01:24;3.65;;;1.38;;
20870;SDS011;10595;51.218;3.452;2023-07-29T12:03:50;1.52;;;1.40;;
20870;SDS011;10595;51.218;3.452;2023-07-29T12:06:16;2.35;;;1.55;;
20870;SDS011;10595;51.218;3.452;2023-07-29T12:08:42;3.85;;;1.42;;
20870;SDS011;10595;51.218;3.452;2023-07-29T12:11:09;1.90;;;1.35;;
20870;SDS011;10595;51.218;3.452;2023-07-29T12:13:38;4.95;;;1.50;;
20870;SDS011;10595;51.218;3.452;2023-07-29T12:16:04;5.70;;;1.65;;
20870;SDS011;10595;51.218;3.452;2023-07-29T12:18:30;1.80;;;1.23;;
20870;SDS011;10595;51.218;3.452;2023-07-29T12:20:56;2.25;;;1.23;;
20870;SDS011;10595;51.218;3.452;2023-07-29T12:23:25;3.20;;;1.65;;
20870;SDS011;10595;51.218;3.452;2023-07-29T12:25:56;2.85;;;1.45;;
20870;SDS011;10595;51.218;3.452;2023-07-29T12:28:22;1.77;;;1.42;;
20870;SDS011;10595;51.218;3.452;2023-07-29T12:30:53;4.32;;;1.40;;
20870;SDS011;10595;51.218;3.452;2023-07-29T12:33:37;1.98;;;1.27;;
20870;SDS011;10595;51.218;3.452;2023-07-29T12:36:06;3.35;;;1.70;;
20870;SDS011;10595;51.218;3.452;2023-07-29T12:38:33;2.00;;;1.40;;
20870;SDS011;10595;51.218;3.452;2023-07-29T12:40:59;2.90;;;1.65;;
20870;SDS011;10595;51.218;3.452;2023-07-29T12:43:25;3.78;;;1.20;;
20870;SDS011;10595;51.218;3.452;2023-07-29T12:45:51;2.97;;;1.60;;
20870;SDS011;10595;51.218;3.452;2023-07-29T12:48:17;2.40;;;1.45;;
20870;SDS011;10595;51.218;3.452;2023-07-29T12:50:43;1.80;;;1.40;;
20870;SDS011;10595;51.218;3.452;2023-07-29T12:53:09;3.50;;;1.60;;
20870;SDS011;10595;51.218;3.452;2023-07-29T12:55:36;2.67;;;1.60;;
20870;SDS011;10595;51.218;3.452;2023-07-29T12:58:02;1.83;;;1.47;;
20870;SDS011;10595;51.218;3.452;2023-07-29T13:00:28;3.57;;;1.30;;
20870;SDS011;10595;51.218;3.452;2023-07-29T13:02:54;1.60;;;1.37;;
20870;SDS011;10595;51.218;3.452;2023-07-29T13:05:20;3.03;;;1.70;;
20870;SDS011;10595;51.218;3.452;2023-07-29T13:07:47;2.70;;;1.60;;
20870;SDS011;10595;51.218;3.452;2023-07-29T13:10:13;3.40;;;1.60;;
20870;SDS011;10595;51.218;3.452;2023-07-29T13:12:39;2.17;;;1.60;;
20870;SDS011;10595;51.218;3.452;2023-07-29T13:15:05;2.57;;;1.77;;
20870;SDS011;10595;51.218;3.452;2023-07-29T13:17:32;2.00;;;1.33;;
20870;SDS011;10595;51.218;3.452;2023-07-29T13:19:58;4.00;;;1.80;;
20870;SDS011;10595;51.218;3.452;2023-07-29T13:22:24;2.83;;;1.50;;
20870;SDS011;10595;51.218;3.452;2023-07-29T13:24:50;3.13;;;1.63;;
20870;SDS011;10595;51.218;3.452;2023-07-29T13:27:16;2.63;;;1.40;;
20870;SDS011;10595;51.218;3.452;2023-07-29T13:29:42;2.30;;;1.20;;
20870;SDS011;10595;51.218;3.452;2023-07-29T13:32:08;1.80;;;1.13;;
20870;SDS011;10595;51.218;3.452;2023-07-29T13:34:34;1.20;;;1.10;;
20870;SDS011;10595;51.218;3.452;2023-07-29T13:37:01;1.70;;;1.40;;
20870;SDS011;10595;51.218;3.452;2023-07-29T13:39:27;2.07;;;1.40;;
20870;SDS011;10595;51.218;3.452;2023-07-29T13:41:53;2.40;;;1.80;;
20870;SDS011;10595;51.218;3.452;2023-07-29T13:44:19;2.20;;;2.00;;
20870;SDS011;10595;51.218;3.452;2023-07-29T13:46:45;1.27;;;1.17;;
20870;SDS011;10595;51.218;3.452;2023-07-29T13:49:11;1.73;;;1.17;;
20870;SDS011;10595;51.218;3.452;2023-07-29T13:51:37;1.13;;;1.03;;
20870;SDS011;10595;51.218;3.452;2023-07-29T13:54:04;0.83;;;0.73;;
20870;SDS011;10595;51.218;3.452;2023-07-29T13:56:30;2.00;;;0.90;;
20870;SDS011;10595;51.218;3.452;2023-07-29T13:58:56;0.93;;;0.70;;
20870;SDS011;10595;51.218;3.452;2023-07-29T14:01:22;1.17;;;0.70;;
20870;SDS011;10595;51.218;3.452;2023-07-29T14:03:49;1.13;;;0.70;;
20870;SDS011;10595;51.218;3.452;2023-07-29T14:06:15;0.95;;;0.95;;
20870;SDS011;10595;51.218;3.452;2023-07-29T14:08:41;1.00;;;0.68;;
20870;SDS011;10595;51.218;3.452;2023-07-29T14:11:07;1.48;;;0.70;;
20870;SDS011;10595;51.218;3.452;2023-07-29T14:13:33;0.75;;;0.70;;
20870;SDS011;10595;51.218;3.452;2023-07-29T14:16:01;0.63;;;0.63;;
20870;SDS011;10595;51.218;3.452;2023-07-29T14:18:27;0.87;;;0.60;;
20870;SDS011;10595;51.218;3.452;2023-07-29T14:20:53;1.90;;;0.70;;
20870;SDS011;10595;51.218;3.452;2023-07-29T14:23:19;1.20;;;0.80;;
20870;SDS011;10595;51.218;3.452;2023-07-29T14:25:45;2.93;;;0.83;;
20870;SDS011;10595;51.218;3.452;2023-07-29T14:28:12;1.50;;;0.80;;
20870;SDS011;10595;51.218;3.452;2023-07-29T14:30:38;1.45;;;0.70;;
20870;SDS011;10595;51.218;3.452;2023-07-29T14:33:06;1.85;;;1.10;;
20870;SDS011;10595;51.218;3.452;2023-07-29T14:35:32;1.60;;;1.02;;
20870;SDS011;10595;51.218;3.452;2023-07-29T14:37:58;0.80;;;0.80;;
20870;SDS011;10595;51.218;3.452;2023-07-29T14:40:24;1.93;;;0.90;;
20870;SDS011;10595;51.218;3.452;2023-07-29T14:42:50;2.27;;;1.17;;
20870;SDS011;10595;51.218;3.452;2023-07-29T14:45:16;2.88;;;1.17;;
20870;SDS011;10595;51.218;3.452;2023-07-29T14:47:42;2.70;;;1.10;;
20870;SDS011;10595;51.218;3.452;2023-07-29T14:50:08;2.47;;;1.40;;
20870;SDS011;10595;51.218;3.452;2023-07-29T14:52:34;2.93;;;1.40;;
20870;SDS011;10595;51.218;3.452;2023-07-29T14:55:00;3.93;;;1.40;;
20870;SDS011;10595;51.218;3.452;2023-07-29T14:57:26;3.30;;;1.50;;
20870;SDS011;10595;51.218;3.452;2023-07-29T14:59:52;3.97;;;1.50;;
20870;SDS011;10595;51.218;3.452;2023-07-29T15:02:18;3.13;;;1.33;;
20870;SDS011;10595;51.218;3.452;2023-07-29T15:04:44;4.00;;;1.45;;
20870;SDS011;10595;51.218;3.452;2023-07-29T15:07:10;3.35;;;1.55;;